ETNL/RLG METAR and TAF weather

Enter ICAO airport designator
Station Type Date Time Source
ETNL METAR 2022/12/05 14:20 UTC NOAA

ETNL 051420Z 08005KT 5000 -DZSN BR BKN009 OVC015 02/01 Q1018 GRN YLO TEMPO GRN


Station Type Date Time Source
ETNL Decoded METAR 2022/12/05 14:20 UTC NOAA

Laage, Germany (ETNL) 53-55N 012-17E 46M
Dec 05, 2022 - 09:20 AM EST / 2022.12.05 1420 UTC
Wind: from the E (080 degrees) at 6 MPH (5 KT):0
Visibility: 3 mile(s):0
Sky conditions: overcast
Weather: light drizzle, snow; mist
Temperature: 35 F (2 C)
Windchill: 30 F (-1 C):1
Dew Point: 33 F (1 C)
Relative Humidity: 93%
Pressure (altimeter): 30.06 in. Hg (1018 hPa)
ob: ETNL 051420Z 08005KT 5000 -DZSN BR BKN009 OVC015 02/01 Q1018 GRN YLO TEMPO GRN
cycle: 14

Station Type Date Time Source
ETNL TAF 2022/10/09 05:36 UTC NOAA

TAF ETNL 090416Z 0905/1005 22008KT 9999 NSW FEW030
TEMPO 0905/0907 22004KT 3000 BR FEW015 PROB30 0905/0906 22003KT 0500 FG BKN001 BY ETGL

Example: see airport list